createdAt,value
2016-11-26T00:00:20.020Z,0
2016-11-26T00:01:28.624Z,0
2016-11-26T00:02:37.200Z,0
2016-11-26T00:03:46.096Z,0
2016-11-26T00:04:54.675Z,0
2016-11-26T00:06:03.566Z,0
2016-11-26T00:07:12.154Z,0
2016-11-26T00:08:21.390Z,0
2016-11-26T00:09:30.294Z,0
2016-11-26T00:10:39.206Z,0
2016-11-26T00:11:48.207Z,0
2016-11-26T00:12:57.760Z,0
2016-11-26T00:14:06.989Z,0
2016-11-26T00:15:15.889Z,0
2016-11-26T00:16:24.495Z,0
2016-11-26T00:17:33.116Z,0
2016-11-26T00:18:41.695Z,0
2016-11-26T00:19:50.270Z,0
2016-11-26T00:20:58.855Z,0
2016-11-26T00:22:07.437Z,0
2016-11-26T00:23:16.107Z,0
2016-11-26T00:24:25.322Z,0
2016-11-26T00:25:33.902Z,0
2016-11-26T00:26:42.807Z,0
2016-11-26T00:27:51.382Z,0
2016-11-26T00:29:00.306Z,0
2016-11-26T00:30:08.878Z,0
2016-11-26T00:31:17.787Z,0
2016-11-26T00:32:26.385Z,0
2016-11-26T00:33:35.936Z,0
2016-11-26T00:34:45.194Z,0
2016-11-26T00:35:54.108Z,0
2016-11-26T00:37:03.019Z,0
2016-11-26T00:38:11.928Z,0
2016-11-26T00:39:20.516Z,0
2016-11-26T00:40:29.778Z,0
2016-11-26T00:41:38.356Z,0
2016-11-26T00:42:47.570Z,0
2016-11-26T00:43:56.165Z,0
2016-11-26T00:45:05.070Z,0
2016-11-26T00:46:14.339Z,0
2016-11-26T00:47:22.918Z,0
2016-11-26T00:48:31.488Z,0
2016-11-26T00:49:40.386Z,0
2016-11-26T00:50:49.280Z,0
2016-11-26T00:51:58.595Z,0
2016-11-26T00:53:07.492Z,0
2016-11-26T00:54:17.365Z,0
2016-11-26T00:55:26.262Z,0
2016-11-26T00:56:34.842Z,0
2016-11-26T00:57:44.196Z,0
2016-11-26T00:58:52.766Z,0
2016-11-26T01:00:01.387Z,0
2016-11-26T01:01:10.610Z,0
2016-11-26T01:02:19.503Z,0
2016-11-26T01:03:28.791Z,0
2016-11-26T01:04:37.371Z,0
2016-11-26T01:05:46.276Z,0
2016-11-26T01:06:55.172Z,0
2016-11-26T01:08:04.104Z,0
2016-11-26T01:09:13.318Z,0
2016-11-26T01:10:21.896Z,0
2016-11-26T01:11:30.793Z,0
2016-11-26T01:12:39.671Z,0
2016-11-26T01:13:48.576Z,0
2016-11-26T01:14:57.204Z,0
2016-11-26T01:16:05.787Z,0
2016-11-26T01:17:14.682Z,0
2016-11-26T01:18:23.245Z,0
2016-11-26T01:19:32.127Z,0
2016-11-26T01:20:40.792Z,0
2016-11-26T01:21:49.367Z,0
2016-11-26T01:22:57.964Z,0
2016-11-26T01:24:06.544Z,0
2016-11-26T01:25:15.123Z,0
2016-11-26T01:26:24.120Z,0
2016-11-26T01:27:32.690Z,0
2016-11-26T01:28:41.270Z,0
2016-11-26T01:29:50.162Z,0
2016-11-26T01:30:59.063Z,0
2016-11-26T01:32:07.700Z,0
2016-11-26T01:33:16.291Z,0
2016-11-26T01:34:24.871Z,0
2016-11-26T01:35:33.436Z,0
2016-11-26T01:36:42.006Z,0
2016-11-26T01:37:51.269Z,0
2016-11-26T01:38:59.855Z,0
2016-11-26T01:40:08.750Z,0
2016-11-26T01:41:17.654Z,0
2016-11-26T01:42:26.248Z,0
2016-11-26T01:43:34.938Z,0
2016-11-26T01:44:43.519Z,0
2016-11-26T01:45:52.408Z,0
2016-11-26T01:47:00.993Z,0
2016-11-26T01:48:09.580Z,0
2016-11-26T01:49:19.173Z,0
2016-11-26T01:50:28.085Z,0
2016-11-26T01:51:36.977Z,0
2016-11-26T01:52:45.557Z,0
2016-11-26T01:53:54.448Z,0
2016-11-26T01:55:03.080Z,0
2016-11-26T01:56:11.667Z,0
2016-11-26T01:57:20.244Z,0
2016-11-26T01:58:28.829Z,0
2016-11-26T01:59:37.397Z,0
2016-11-26T02:00:46.089Z,0
2016-11-26T02:01:54.981Z,0
2016-11-26T02:03:04.198Z,0
2016-11-26T02:04:12.784Z,0
2016-11-26T02:05:21.675Z,0
2016-11-26T02:06:30.294Z,0
2016-11-26T02:07:38.865Z,0
2016-11-26T02:08:47.444Z,0
2016-11-26T02:09:56.022Z,0
2016-11-26T02:11:04.920Z,0
2016-11-26T02:12:14.112Z,0
2016-11-26T02:13:22.685Z,0
2016-11-26T02:14:31.279Z,0
2016-11-26T02:15:39.856Z,0
2016-11-26T02:16:48.764Z,0
2016-11-26T02:17:58.001Z,0
2016-11-26T02:19:06.587Z,0
2016-11-26T02:20:15.163Z,0
2016-11-26T02:21:24.074Z,0
2016-11-26T02:22:32.651Z,0
2016-11-26T02:23:41.907Z,0
2016-11-26T02:24:50.803Z,0
2016-11-26T02:25:59.711Z,0
2016-11-26T02:27:08.289Z,0
2016-11-26T02:28:17.177Z,0
2016-11-26T02:29:26.415Z,0
2016-11-26T02:30:34.985Z,0
2016-11-26T02:31:43.555Z,0
2016-11-26T02:32:52.782Z,0
2016-11-26T02:34:01.668Z,0
2016-11-26T02:35:10.341Z,0
2016-11-26T02:36:19.576Z,0
2016-11-26T02:37:28.476Z,0
2016-11-26T02:38:37.699Z,0
2016-11-26T02:39:46.286Z,0
2016-11-26T02:40:55.632Z,0
2016-11-26T02:42:04.212Z,0
2016-11-26T02:43:13.099Z,0
2016-11-26T02:44:21.998Z,0
2016-11-26T02:45:30.904Z,0
2016-11-26T02:46:40.244Z,0
2016-11-26T02:47:49.447Z,0
2016-11-26T02:48:58.350Z,0
2016-11-26T02:50:07.268Z,0
2016-11-26T02:51:16.173Z,0
2016-11-26T02:52:25.062Z,0
2016-11-26T02:53:33.626Z,0
2016-11-26T02:54:42.211Z,0
2016-11-26T02:55:51.091Z,0
2016-11-26T02:56:59.969Z,0
2016-11-26T02:58:08.963Z,0
2016-11-26T02:59:17.852Z,0
2016-11-26T03:00:26.443Z,0
2016-11-26T03:01:35.348Z,0
2016-11-26T03:02:43.919Z,0
2016-11-26T03:03:52.860Z,0
2016-11-26T03:05:01.454Z,0
2016-11-26T03:06:10.364Z,0
2016-11-26T03:07:19.600Z,0
2016-11-26T03:08:28.176Z,0
2016-11-26T03:09:37.100Z,0
2016-11-26T03:10:45.674Z,0
2016-11-26T03:11:54.557Z,0
2016-11-26T03:13:03.141Z,0
2016-11-26T03:14:12.488Z,0
2016-11-26T03:15:21.398Z,0
2016-11-26T03:16:29.965Z,0
2016-11-26T03:17:38.846Z,0
2016-11-26T03:18:47.721Z,0
2016-11-26T03:19:56.604Z,0
2016-11-26T03:21:05.486Z,0
2016-11-26T03:22:14.362Z,0
2016-11-26T03:23:22.925Z,0
2016-11-26T03:24:31.805Z,0
2016-11-26T03:25:41.003Z,0
2016-11-26T03:26:50.013Z,0
2016-11-26T03:27:58.577Z,0
2016-11-26T03:29:07.142Z,0
2016-11-26T03:30:15.704Z,0
2016-11-26T03:31:24.587Z,0
2016-11-26T03:32:33.820Z,0
2016-11-26T03:33:42.380Z,0
2016-11-26T03:34:50.942Z,0
2016-11-26T03:36:00.459Z,0
2016-11-26T03:37:09.338Z,0
2016-11-26T03:38:17.999Z,0
2016-11-26T03:39:27.195Z,0
2016-11-26T03:40:36.077Z,0
2016-11-26T03:41:44.645Z,0
2016-11-26T03:42:53.528Z,0
2016-11-26T03:44:02.142Z,0
2016-11-26T03:45:11.026Z,0
2016-11-26T03:46:19.935Z,0
2016-11-26T03:47:28.500Z,0
2016-11-26T03:48:37.379Z,0
2016-11-26T03:49:46.708Z,0
2016-11-26T03:50:55.908Z,0
2016-11-26T03:52:04.473Z,0
2016-11-26T03:53:13.035Z,0
2016-11-26T03:54:21.913Z,0
2016-11-26T03:55:30.821Z,0
2016-11-26T03:56:40.018Z,0
2016-11-26T03:57:48.581Z,0
2016-11-26T03:58:57.490Z,0
2016-11-26T04:00:06.365Z,0
2016-11-26T04:01:15.644Z,0
2016-11-26T04:02:24.521Z,0
2016-11-26T04:03:33.080Z,0
2016-11-26T04:04:41.961Z,0
2016-11-26T04:05:50.528Z,0
2016-11-26T04:06:59.809Z,0
2016-11-26T04:08:09.006Z,0
2016-11-26T04:09:17.604Z,0
2016-11-26T04:10:26.165Z,0
2016-11-26T04:11:35.047Z,0
2016-11-26T04:12:43.976Z,0
2016-11-26T04:13:52.860Z,0
2016-11-26T04:15:01.784Z,0
2016-11-26T04:16:10.667Z,0
2016-11-26T04:17:19.865Z,0
2016-11-26T04:18:29.098Z,0
2016-11-26T04:19:38.296Z,0
2016-11-26T04:20:47.203Z,0
2016-11-26T04:21:55.768Z,0
2016-11-26T04:23:04.327Z,0
2016-11-26T04:24:12.939Z,0
2016-11-26T04:25:21.497Z,0
2016-11-26T04:26:30.377Z,0
2016-11-26T04:27:38.937Z,0
2016-11-26T04:28:47.496Z,0
2016-11-26T04:29:56.107Z,0
2016-11-26T04:31:04.986Z,0
2016-11-26T04:32:14.191Z,0
2016-11-26T04:33:23.386Z,0
2016-11-26T04:34:32.264Z,0
2016-11-26T04:35:41.245Z,0
2016-11-26T04:36:50.441Z,0
2016-11-26T04:37:59.323Z,0
2016-11-26T04:39:07.885Z,0
2016-11-26T04:40:16.448Z,0
2016-11-26T04:41:25.307Z,0
2016-11-26T04:42:33.866Z,0
2016-11-26T04:43:42.751Z,0
2016-11-26T04:44:51.952Z,0
2016-11-26T04:46:00.864Z,0
2016-11-26T04:47:09.844Z,0
2016-11-26T04:48:18.721Z,0
2016-11-26T04:49:27.290Z,0
2016-11-26T04:50:36.169Z,0
2016-11-26T04:51:45.364Z,0
2016-11-26T04:52:54.608Z,0
2016-11-26T04:54:03.808Z,0
2016-11-26T04:55:12.375Z,0
2016-11-26T04:56:20.938Z,0
2016-11-26T04:57:30.138Z,0
2016-11-26T04:58:39.434Z,0
2016-11-26T04:59:47.997Z,0
2016-11-26T05:00:56.560Z,0
2016-11-26T05:02:05.124Z,0
2016-11-26T05:03:14.011Z,0
2016-11-26T05:04:23.292Z,0
2016-11-26T05:05:31.855Z,0
2016-11-26T05:06:40.449Z,0
2016-11-26T05:07:49.050Z,0
2016-11-26T05:08:57.616Z,0
2016-11-26T05:10:06.596Z,0
2016-11-26T05:11:15.792Z,0
2016-11-26T05:12:24.671Z,0
2016-11-26T05:13:33.552Z,0
2016-11-26T05:14:42.112Z,0
2016-11-26T05:15:51.045Z,0
2016-11-26T05:16:59.612Z,0
2016-11-26T05:18:08.492Z,0
2016-11-26T05:19:17.077Z,0
2016-11-26T05:20:25.640Z,0
2016-11-26T05:21:34.886Z,0
2016-11-26T05:22:44.083Z,0
2016-11-26T05:23:52.652Z,0
2016-11-26T05:25:01.854Z,0
2016-11-26T05:26:10.413Z,0
2016-11-26T05:27:19.024Z,0
2016-11-26T05:28:27.906Z,0
2016-11-26T05:29:36.466Z,0
2016-11-26T05:30:45.031Z,0
2016-11-26T05:31:53.913Z,0
2016-11-26T05:33:03.416Z,0
2016-11-26T05:34:12.294Z,0
2016-11-26T05:35:20.854Z,0
2016-11-26T05:36:29.410Z,0
2016-11-26T05:37:37.976Z,0
2016-11-26T05:38:47.262Z,0
2016-11-26T05:39:55.825Z,0
2016-11-26T05:41:04.384Z,0
2016-11-26T05:42:12.942Z,0
2016-11-26T05:43:21.817Z,0
2016-11-26T05:44:31.143Z,0
2016-11-26T05:45:39.707Z,0
2016-11-26T05:46:48.905Z,0
2016-11-26T05:47:57.781Z,0
2016-11-26T05:49:06.982Z,0
2016-11-26T05:50:15.914Z,0
2016-11-26T05:51:24.501Z,0
2016-11-26T05:52:34.026Z,0
2016-11-26T05:53:42.904Z,0
2016-11-26T05:54:52.100Z,0
2016-11-26T05:56:01.381Z,0
2016-11-26T05:57:10.261Z,0
2016-11-26T05:58:19.143Z,0
2016-11-26T05:59:27.708Z,0
2016-11-26T06:00:36.583Z,0
2016-11-26T06:01:45.200Z,0
2016-11-26T06:02:53.757Z,0
2016-11-26T06:04:02.641Z,0
2016-11-26T06:05:11.518Z,0
2016-11-26T06:06:20.083Z,0
2016-11-26T06:07:29.098Z,0
2016-11-26T06:08:37.975Z,0
2016-11-26T06:09:46.854Z,0
2016-11-26T06:10:55.417Z,0
2016-11-26T06:12:04.300Z,0
2016-11-26T06:13:13.553Z,0
2016-11-26T06:14:22.430Z,0
2016-11-26T06:15:31.313Z,0
2016-11-26T06:16:40.196Z,0
2016-11-26T06:17:49.070Z,0
2016-11-26T06:18:57.931Z,0
2016-11-26T06:20:06.524Z,0
2016-11-26T06:21:15.404Z,0
2016-11-26T06:22:24.285Z,0
2016-11-26T06:23:33.167Z,0
2016-11-26T06:24:42.496Z,0
2016-11-26T06:25:51.054Z,0
2016-11-26T06:26:59.614Z,0
2016-11-26T06:28:08.172Z,0
2016-11-26T06:29:17.372Z,0
2016-11-26T06:30:26.302Z,0
2016-11-26T06:31:35.209Z,0
2016-11-26T06:32:44.086Z,0
2016-11-26T06:33:53.282Z,0
2016-11-26T06:35:01.849Z,0
2016-11-26T06:36:11.081Z,0
2016-11-26T06:37:19.637Z,0
2016-11-26T06:38:28.194Z,0
2016-11-26T06:39:37.072Z,0
2016-11-26T06:40:45.951Z,0
2016-11-26T06:41:54.860Z,0
2016-11-26T06:43:04.056Z,0
2016-11-26T06:44:12.623Z,0
2016-11-26T06:45:21.503Z,0
2016-11-26T06:46:30.061Z,0
2016-11-26T06:47:38.989Z,0
2016-11-26T06:48:47.876Z,0
2016-11-26T06:49:56.436Z,0
2016-11-26T06:51:05.315Z,0
2016-11-26T06:52:13.876Z,0
2016-11-26T06:53:22.789Z,0
2016-11-26T06:54:31.988Z,0
2016-11-26T06:55:40.549Z,5
2016-11-26T06:56:49.431Z,5
2016-11-26T06:57:58.306Z,5
2016-11-26T06:59:07.166Z,5
2016-11-26T07:00:16.045Z,5
2016-11-26T07:01:25.241Z,5
2016-11-26T07:02:34.133Z,5
2016-11-26T07:03:43.039Z,10
2016-11-26T07:04:51.945Z,10
2016-11-26T07:06:00.504Z,10
2016-11-26T07:07:09.390Z,10
2016-11-26T07:08:18.267Z,15
2016-11-26T07:09:27.147Z,15
2016-11-26T07:10:36.073Z,15
2016-11-26T07:11:44.635Z,15
2016-11-26T07:12:53.529Z,20
2016-11-26T07:14:02.419Z,20
2016-11-26T07:15:10.977Z,20
2016-11-26T07:16:19.954Z,25
2016-11-26T07:17:28.513Z,25
2016-11-26T07:18:37.074Z,25
2016-11-26T07:19:45.635Z,30
2016-11-26T07:20:54.510Z,35
2016-11-26T07:22:03.128Z,35
2016-11-26T07:23:12.010Z,40
2016-11-26T07:24:20.887Z,40
2016-11-26T07:25:29.761Z,45
2016-11-26T07:26:38.319Z,45
2016-11-26T07:27:47.546Z,50
2016-11-26T07:28:56.427Z,50
2016-11-26T07:30:04.999Z,55
2016-11-26T07:31:14.513Z,55
2016-11-26T07:32:23.391Z,60
2016-11-26T07:33:32.618Z,60
2016-11-26T07:34:41.188Z,65
2016-11-26T07:35:49.753Z,65
2016-11-26T07:36:58.946Z,70
2016-11-26T07:38:07.540Z,75
2016-11-26T07:39:16.184Z,75
2016-11-26T07:40:25.059Z,80
2016-11-26T07:41:33.618Z,80
2016-11-26T07:42:42.177Z,85
2016-11-26T07:43:50.736Z,85
2016-11-26T07:44:59.968Z,85
2016-11-26T07:46:08.845Z,90
2016-11-26T07:47:17.433Z,90
2016-11-26T07:48:26.319Z,90
2016-11-26T07:49:35.200Z,95
2016-11-26T07:50:44.745Z,100
2016-11-26T07:51:53.303Z,105
2016-11-26T07:53:01.864Z,105
2016-11-26T07:54:10.740Z,110
2016-11-26T07:55:19.626Z,110
2016-11-26T07:56:28.238Z,115
2016-11-26T07:57:36.796Z,115
2016-11-26T07:58:45.355Z,120
2016-11-26T07:59:53.922Z,120
2016-11-26T08:01:02.482Z,125
2016-11-26T08:02:11.708Z,125
2016-11-26T08:03:20.267Z,130
2016-11-26T08:04:29.146Z,135
2016-11-26T08:05:38.346Z,140
2016-11-26T08:06:47.222Z,140
2016-11-26T08:07:56.551Z,145
2016-11-26T08:09:05.789Z,150
2016-11-26T08:10:15.312Z,155
2016-11-26T08:11:24.191Z,155
2016-11-26T08:12:33.075Z,160
2016-11-26T08:13:41.686Z,165
2016-11-26T08:14:50.250Z,165
2016-11-26T08:15:58.817Z,170
2016-11-26T08:17:07.379Z,175
2016-11-26T08:18:16.256Z,180
2016-11-26T08:19:25.170Z,175
2016-11-26T08:20:34.057Z,170
2016-11-26T08:21:42.933Z,175
2016-11-26T08:22:51.496Z,175
2016-11-26T08:24:00.059Z,185
2016-11-26T08:25:08.976Z,190
2016-11-26T08:26:17.556Z,185
2016-11-26T08:27:26.435Z,190
2016-11-26T08:28:34.997Z,195
2016-11-26T08:29:43.885Z,195
2016-11-26T08:30:53.115Z,200
2016-11-26T08:32:02.030Z,205
2016-11-26T08:33:10.911Z,220
2016-11-26T08:34:20.106Z,220
2016-11-26T08:35:28.991Z,220
2016-11-26T08:36:37.933Z,220
2016-11-26T08:37:46.815Z,225
2016-11-26T08:38:56.045Z,225
2016-11-26T08:40:04.607Z,230
2016-11-26T08:41:13.165Z,230
2016-11-26T08:42:22.177Z,225
2016-11-26T08:43:30.738Z,235
2016-11-26T08:44:39.308Z,240
2016-11-26T08:45:48.187Z,235
2016-11-26T08:46:57.065Z,235
2016-11-26T08:48:05.994Z,250
2016-11-26T08:49:14.874Z,250
2016-11-26T08:50:23.749Z,240
2016-11-26T08:51:32.311Z,245
2016-11-26T08:52:40.881Z,250
2016-11-26T08:53:49.806Z,250
2016-11-26T08:54:58.696Z,245
2016-11-26T08:56:08.535Z,250
2016-11-26T08:57:17.130Z,245
2016-11-26T08:58:26.010Z,245
2016-11-26T08:59:35.019Z,255
2016-11-26T09:00:44.532Z,255
2016-11-26T09:01:53.726Z,260
2016-11-26T09:03:02.602Z,255
2016-11-26T09:04:11.511Z,255
2016-11-26T09:05:20.474Z,255
2016-11-26T09:06:29.357Z,255
2016-11-26T09:07:37.920Z,255
2016-11-26T09:08:46.488Z,250
2016-11-26T09:09:55.053Z,255
2016-11-26T09:11:03.988Z,260
2016-11-26T09:12:12.553Z,260
2016-11-26T09:13:21.114Z,275
2016-11-26T09:14:29.675Z,275
2016-11-26T09:15:39.194Z,290
2016-11-26T09:16:47.803Z,295
2016-11-26T09:17:57.348Z,305
2016-11-26T09:19:06.231Z,305
2016-11-26T09:20:14.792Z,310
2016-11-26T09:21:23.353Z,315
2016-11-26T09:22:31.973Z,310
2016-11-26T09:23:40.533Z,320
2016-11-26T09:24:49.411Z,325
2016-11-26T09:25:58.295Z,325
2016-11-26T09:27:07.172Z,330
2016-11-26T09:28:16.100Z,340
2016-11-26T09:29:24.667Z,330
2016-11-26T09:30:33.233Z,315
2016-11-26T09:31:42.147Z,310
2016-11-26T09:32:50.711Z,290
2016-11-26T09:33:59.718Z,290
2016-11-26T09:35:08.281Z,280
2016-11-26T09:36:17.507Z,300
2016-11-26T09:37:26.067Z,310
2016-11-26T09:38:35.264Z,305
2016-11-26T09:39:44.199Z,300
2016-11-26T09:40:53.087Z,295
2016-11-26T09:42:02.005Z,295
2016-11-26T09:43:10.887Z,295
2016-11-26T09:44:19.767Z,300
2016-11-26T09:45:28.697Z,320
2016-11-26T09:46:37.263Z,320
2016-11-26T09:47:46.459Z,310
2016-11-26T09:48:55.339Z,310
2016-11-26T09:50:04.216Z,310
2016-11-26T09:51:13.815Z,315
2016-11-26T09:52:22.379Z,310
2016-11-26T09:53:31.265Z,305
2016-11-26T09:54:39.832Z,320
2016-11-26T09:55:48.715Z,325
2016-11-26T09:56:57.631Z,325
2016-11-26T09:58:06.510Z,325
2016-11-26T09:59:15.390Z,310
2016-11-26T10:00:24.268Z,315
2016-11-26T10:01:32.840Z,320
2016-11-26T10:02:41.505Z,335
2016-11-26T10:03:50.065Z,335
2016-11-26T10:04:58.623Z,340
2016-11-26T10:06:07.188Z,340
2016-11-26T10:07:15.749Z,345
2016-11-26T10:08:24.690Z,330
2016-11-26T10:09:33.573Z,330
2016-11-26T10:10:42.141Z,340
2016-11-26T10:11:50.700Z,340
2016-11-26T10:12:59.580Z,345
2016-11-26T10:14:08.499Z,350
2016-11-26T10:15:17.058Z,355
2016-11-26T10:16:25.620Z,350
2016-11-26T10:17:34.185Z,340
2016-11-26T10:18:43.068Z,350
2016-11-26T10:19:51.729Z,365
2016-11-26T10:21:00.293Z,370
2016-11-26T10:22:09.177Z,370
2016-11-26T10:23:18.057Z,360
2016-11-26T10:24:26.619Z,360
2016-11-26T10:25:35.599Z,370
2016-11-26T10:26:44.481Z,370
2016-11-26T10:27:53.044Z,360
2016-11-26T10:29:02.245Z,365
2016-11-26T10:30:11.132Z,365
2016-11-26T10:31:19.743Z,370
2016-11-26T10:32:28.303Z,365
2016-11-26T10:33:36.862Z,365
2016-11-26T10:34:45.740Z,355
2016-11-26T10:35:54.303Z,350
2016-11-26T10:37:03.591Z,355
2016-11-26T10:38:13.137Z,350
2016-11-26T10:39:22.018Z,365
2016-11-26T10:40:30.585Z,375
2016-11-26T10:41:39.465Z,370
2016-11-26T10:42:48.109Z,375
2016-11-26T10:43:56.989Z,375
2016-11-26T10:45:05.872Z,390
2016-11-26T10:46:14.756Z,415
2016-11-26T10:47:23.324Z,410
2016-11-26T10:48:31.939Z,380
2016-11-26T10:49:40.827Z,415
2016-11-26T10:50:49.398Z,410
2016-11-26T10:51:57.961Z,390
2016-11-26T10:53:06.526Z,400
2016-11-26T10:54:15.140Z,380
2016-11-26T10:55:24.024Z,380
2016-11-26T10:56:32.591Z,395
2016-11-26T10:57:41.475Z,380
2016-11-26T10:58:50.355Z,365
2016-11-26T10:59:59.350Z,370
2016-11-26T11:01:08.562Z,395
2016-11-26T11:02:17.443Z,390
2016-11-26T11:03:26.326Z,380
2016-11-26T11:04:35.207Z,355
2016-11-26T11:05:43.822Z,360
2016-11-26T11:06:52.705Z,365
2016-11-26T11:08:01.273Z,395
2016-11-26T11:09:10.154Z,410
2016-11-26T11:10:19.361Z,420
2016-11-26T11:11:28.383Z,400
2016-11-26T11:12:36.955Z,390
2016-11-26T11:13:45.836Z,355
2016-11-26T11:14:54.403Z,350
2016-11-26T11:16:03.284Z,340
2016-11-26T11:17:12.565Z,345
2016-11-26T11:18:21.453Z,340
2016-11-26T11:19:30.019Z,350
2016-11-26T11:20:38.586Z,365
2016-11-26T11:21:47.466Z,355
2016-11-26T11:22:56.084Z,380
2016-11-26T11:24:04.969Z,380
2016-11-26T11:25:13.533Z,380
2016-11-26T11:26:22.097Z,390
2016-11-26T11:27:30.978Z,400
2016-11-26T11:28:40.216Z,390
2016-11-26T11:29:49.129Z,385
2016-11-26T11:30:57.692Z,370
2016-11-26T11:32:06.577Z,365
2016-11-26T11:33:15.779Z,355
2016-11-26T11:34:24.742Z,355
2016-11-26T11:35:33.305Z,375
2016-11-26T11:36:42.188Z,395
2016-11-26T11:37:50.756Z,370
2016-11-26T11:38:59.323Z,365
2016-11-26T11:40:07.944Z,365
2016-11-26T11:41:16.518Z,385
2016-11-26T11:42:25.087Z,355
2016-11-26T11:43:34.290Z,335
2016-11-26T11:44:43.170Z,340
2016-11-26T11:45:52.083Z,315
2016-11-26T11:47:00.968Z,305
2016-11-26T11:48:09.857Z,305
2016-11-26T11:49:18.744Z,305
2016-11-26T11:50:27.313Z,315
2016-11-26T11:51:36.649Z,330
2016-11-26T11:52:45.212Z,350
2016-11-26T11:53:53.781Z,355
2016-11-26T11:55:02.664Z,345
2016-11-26T11:56:11.577Z,340
2016-11-26T11:57:20.504Z,310
2016-11-26T11:58:29.071Z,300
2016-11-26T11:59:37.957Z,310
2016-11-26T12:00:46.842Z,330
2016-11-26T12:01:56.363Z,365
2016-11-26T12:03:05.278Z,435
2016-11-26T12:04:14.160Z,485
2016-11-26T12:05:22.734Z,510
2016-11-26T12:06:31.302Z,505
2016-11-26T12:07:40.502Z,535
2016-11-26T12:08:49.756Z,545
2016-11-26T12:09:58.639Z,530
2016-11-26T12:11:07.524Z,480
2016-11-26T12:12:16.405Z,430
2016-11-26T12:13:25.604Z,400
2016-11-26T12:14:35.257Z,385
2016-11-26T12:15:44.137Z,375
2016-11-26T12:16:53.020Z,370
2016-11-26T12:18:02.218Z,365
2016-11-26T12:19:10.787Z,370
2016-11-26T12:20:19.721Z,365
2016-11-26T12:21:28.925Z,355
2016-11-26T12:22:37.487Z,360
2016-11-26T12:23:46.368Z,360
2016-11-26T12:24:54.934Z,365
2016-11-26T12:26:03.876Z,360
2016-11-26T12:27:12.441Z,350
2016-11-26T12:28:21.010Z,345
2016-11-26T12:29:29.572Z,350
2016-11-26T12:30:38.777Z,340
2016-11-26T12:31:47.960Z,330
2016-11-26T12:32:56.526Z,330
2016-11-26T12:34:05.097Z,330
2016-11-26T12:35:13.667Z,325
2016-11-26T12:36:22.233Z,315
2016-11-26T12:37:31.251Z,310
2016-11-26T12:38:40.135Z,305
2016-11-26T12:39:48.741Z,300
2016-11-26T12:40:57.941Z,300
2016-11-26T12:42:06.510Z,305
2016-11-26T12:43:15.475Z,310
2016-11-26T12:44:24.044Z,300
2016-11-26T12:45:32.609Z,295
2016-11-26T12:46:41.496Z,295
2016-11-26T12:47:50.704Z,295
2016-11-26T12:48:59.620Z,290
2016-11-26T12:50:08.507Z,285
2016-11-26T12:51:17.075Z,275
2016-11-26T12:52:25.645Z,280
2016-11-26T12:53:34.216Z,285
2016-11-26T12:54:42.828Z,275
2016-11-26T12:55:51.397Z,255
2016-11-26T12:57:00.284Z,230
2016-11-26T12:58:09.492Z,215
2016-11-26T12:59:18.059Z,225
2016-11-26T13:00:26.993Z,255
2016-11-26T13:01:36.191Z,280
2016-11-26T13:02:44.765Z,280
2016-11-26T13:03:53.678Z,275
2016-11-26T13:05:02.247Z,280
2016-11-26T13:06:11.500Z,275
2016-11-26T13:07:20.064Z,260
2016-11-26T13:08:28.631Z,255
2016-11-26T13:09:37.515Z,250
2016-11-26T13:10:46.402Z,245
2016-11-26T13:11:55.635Z,255
2016-11-26T13:13:04.850Z,265
2016-11-26T13:14:13.416Z,265
2016-11-26T13:15:22.297Z,265
2016-11-26T13:16:30.868Z,260
2016-11-26T13:17:39.781Z,255
2016-11-26T13:18:48.349Z,250
2016-11-26T13:19:57.235Z,245
2016-11-26T13:21:06.117Z,240
2016-11-26T13:22:15.000Z,230
2016-11-26T13:23:23.650Z,235
2016-11-26T13:24:32.540Z,245
2016-11-26T13:25:41.107Z,245
2016-11-26T13:26:49.669Z,245
2016-11-26T13:27:58.871Z,230
2016-11-26T13:29:07.788Z,225
2016-11-26T13:30:17.018Z,235
2016-11-26T13:31:25.585Z,240
2016-11-26T13:32:34.159Z,235
2016-11-26T13:33:42.725Z,220
2016-11-26T13:34:52.286Z,215
2016-11-26T13:36:00.858Z,205
2016-11-26T13:37:10.061Z,195
2016-11-26T13:38:18.655Z,195
2016-11-26T13:39:27.218Z,200
2016-11-26T13:40:36.456Z,190
2016-11-26T13:41:45.342Z,180
2016-11-26T13:42:53.912Z,170
2016-11-26T13:44:02.796Z,160
2016-11-26T13:45:11.366Z,145
2016-11-26T13:46:19.981Z,130
2016-11-26T13:47:28.861Z,135
2016-11-26T13:48:37.429Z,140
2016-11-26T13:49:46.314Z,145
2016-11-26T13:50:54.885Z,155
2016-11-26T13:52:03.931Z,155
2016-11-26T13:53:12.498Z,155
2016-11-26T13:54:21.385Z,150
2016-11-26T13:55:29.949Z,150
2016-11-26T13:56:38.516Z,145
2016-11-26T13:57:47.179Z,145
2016-11-26T13:58:56.067Z,145
2016-11-26T14:00:04.641Z,140
2016-11-26T14:01:13.215Z,140
2016-11-26T14:02:22.104Z,135
2016-11-26T14:03:31.023Z,135
2016-11-26T14:04:39.588Z,125
2016-11-26T14:05:48.156Z,120
2016-11-26T14:06:57.040Z,115
2016-11-26T14:08:05.964Z,110
2016-11-26T14:09:14.902Z,110
2016-11-26T14:10:23.470Z,110
2016-11-26T14:11:32.037Z,110
2016-11-26T14:12:40.920Z,110
2016-11-26T14:13:49.806Z,105
2016-11-26T14:14:59.142Z,105
2016-11-26T14:16:07.706Z,105
2016-11-26T14:17:16.908Z,105
2016-11-26T14:18:25.491Z,100
2016-11-26T14:19:34.377Z,95
2016-11-26T14:20:43.715Z,95
2016-11-26T14:21:52.279Z,90
2016-11-26T14:23:01.796Z,85
2016-11-26T14:24:10.994Z,85
2016-11-26T14:25:19.559Z,80
2016-11-26T14:26:29.128Z,85
2016-11-26T14:27:37.694Z,85
2016-11-26T14:28:46.582Z,85
2016-11-26T14:29:55.466Z,80
2016-11-26T14:31:04.696Z,75
2016-11-26T14:32:13.631Z,75
2016-11-26T14:33:22.835Z,75
2016-11-26T14:34:31.718Z,70
2016-11-26T14:35:40.289Z,65
2016-11-26T14:36:49.520Z,65
2016-11-26T14:37:58.756Z,60
2016-11-26T14:39:07.648Z,55
2016-11-26T14:40:16.216Z,55
2016-11-26T14:41:25.103Z,55
2016-11-26T14:42:33.672Z,50
2016-11-26T14:43:43.543Z,50
2016-11-26T14:44:52.425Z,45
2016-11-26T14:46:01.309Z,45
2016-11-26T14:47:10.534Z,45
2016-11-26T14:48:19.758Z,40
2016-11-26T14:49:28.374Z,40
2016-11-26T14:50:37.576Z,45
2016-11-26T14:51:46.459Z,40
2016-11-26T14:52:55.023Z,40
2016-11-26T14:54:03.592Z,40
2016-11-26T14:55:12.509Z,40
2016-11-26T14:56:21.079Z,40
2016-11-26T14:57:29.652Z,35
2016-11-26T14:58:38.537Z,35
2016-11-26T14:59:47.735Z,35
2016-11-26T15:00:56.915Z,30
2016-11-26T15:02:05.482Z,30
2016-11-26T15:03:14.053Z,30
2016-11-26T15:04:22.621Z,30
2016-11-26T15:05:31.185Z,30
2016-11-26T15:06:40.104Z,25
2016-11-26T15:07:48.995Z,25
2016-11-26T15:08:57.556Z,25
2016-11-26T15:10:06.120Z,25
2016-11-26T15:11:15.323Z,25
2016-11-26T15:12:24.308Z,20
2016-11-26T15:13:33.193Z,20
2016-11-26T15:14:42.405Z,20
2016-11-26T15:15:51.290Z,20
2016-11-26T15:17:00.488Z,15
2016-11-26T15:18:09.671Z,15
2016-11-26T15:19:18.868Z,15
2016-11-26T15:20:27.430Z,15
2016-11-26T15:21:35.995Z,10
2016-11-26T15:22:44.877Z,10
2016-11-26T15:23:53.811Z,10
2016-11-26T15:25:03.016Z,5
2016-11-26T15:26:12.218Z,5
2016-11-26T15:27:21.429Z,5
2016-11-26T15:28:29.992Z,5
2016-11-26T15:29:38.947Z,0
2016-11-26T15:30:47.509Z,0
2016-11-26T15:31:56.074Z,0
2016-11-26T15:33:04.960Z,0
2016-11-26T15:34:14.162Z,0
2016-11-26T15:35:23.075Z,0
2016-11-26T15:36:31.637Z,0
2016-11-26T15:37:40.522Z,0
2016-11-26T15:38:50.040Z,0
2016-11-26T15:39:58.604Z,0
2016-11-26T15:41:07.623Z,0
2016-11-26T15:42:16.222Z,0
2016-11-26T15:43:25.106Z,0
2016-11-26T15:44:33.991Z,0
2016-11-26T15:45:42.561Z,0
2016-11-26T15:46:51.814Z,0
2016-11-26T15:48:00.377Z,0
2016-11-26T15:49:09.579Z,0
2016-11-26T15:50:18.149Z,0
2016-11-26T15:51:27.049Z,0
2016-11-26T15:52:35.982Z,0
2016-11-26T15:53:44.548Z,0
2016-11-26T15:54:53.118Z,0
2016-11-26T15:56:02.004Z,0
2016-11-26T15:57:10.571Z,0
2016-11-26T15:58:19.903Z,0
2016-11-26T15:59:28.787Z,0
2016-11-26T16:00:37.672Z,0
2016-11-26T16:01:46.870Z,0
2016-11-26T16:02:55.436Z,0
2016-11-26T16:04:04.619Z,0
2016-11-26T16:05:13.500Z,0
2016-11-26T16:06:22.074Z,0
2016-11-26T16:07:30.639Z,0
2016-11-26T16:08:39.516Z,0
2016-11-26T16:09:48.429Z,0
2016-11-26T16:10:57.314Z,0
2016-11-26T16:12:05.884Z,0
2016-11-26T16:13:14.453Z,0
2016-11-26T16:14:23.652Z,0
2016-11-26T16:15:32.635Z,0
2016-11-26T16:16:41.200Z,0
2016-11-26T16:17:50.082Z,0
2016-11-26T16:18:58.971Z,0
2016-11-26T16:20:07.551Z,0
2016-11-26T16:21:16.218Z,0
2016-11-26T16:22:24.787Z,0
2016-11-26T16:23:33.680Z,0
2016-11-26T16:24:42.565Z,0